Cincinnati, Ohio
Traffic Map
Current Weather Conditions
Cincinnati, Ohio
Overcast
Overcast
49°
Feels Like: 45°
Wind Chill: 45° Ceiling: 5000
Heat Index: 49° Visibility: 10mi
Dew Point: 38° Wind: 9mph
Humidity: 66% Direction: 30° (NNE)
Pressure: 30.08in Gusts: 0mph
Raw Report DataKLUK 280353Z AUTO 03008KT 10SM OVC050 09/03 A3008 RMK AO2 SLP187 T00940033
Traffic Incident Summary
Active as of:
Severity:
Category:
InformationThere was an issue retrieving the traffic information for this location. Please try a different location or try again shortly.
Advertisements
Track Severe Weather on mobile